sensor_id;sensor_type;location;lat;lon;timestamp;pressure;altitude;pressure_sealevel;temperature;humidity
39823;BME280;25499;53.958;10.970;2023-03-19T08:29:15;101169.41;;;11.85;100.00
39823;BME280;25499;53.958;10.970;2023-03-19T08:31:41;101163.28;;;11.89;100.00
39823;BME280;25499;53.958;10.970;2023-03-19T08:34:07;101162.44;;;11.99;100.00
39823;BME280;25499;53.958;10.970;2023-03-19T08:36:35;101165.94;;;11.97;100.00
39823;BME280;25499;53.958;10.970;2023-03-19T08:39:00;101168.50;;;12.07;100.00
39823;BME280;25499;53.958;10.970;2023-03-19T08:41:26;101171.97;;;12.06;100.00
39823;BME280;25499;53.958;10.970;2023-03-19T09:06:35;101158.75;;;13.78;98.25
39823;BME280;25499;53.958;10.970;2023-03-19T09:09:00;101153.50;;;13.81;96.29
39823;BME280;25499;53.958;10.970;2023-03-19T09:11:26;101147.56;;;13.64;93.88
39823;BME280;25499;53.958;10.970;2023-03-19T09:13:51;101145.75;;;13.69;93.00
39823;BME280;25499;53.958;10.970;2023-03-19T09:16:16;101156.25;;;13.67;93.73
39823;BME280;25499;53.958;10.970;2023-03-19T09:18:42;101152.66;;;13.79;93.01
39823;BME280;25499;53.958;10.970;2023-03-19T09:21:08;101157.66;;;14.01;92.70
39823;BME280;25499;53.958;10.970;2023-03-19T09:23:34;101161.94;;;14.09;92.23
39823;BME280;25499;53.958;10.970;2023-03-19T09:25:59;101152.53;;;13.88;91.65
39823;BME280;25499;53.958;10.970;2023-03-19T09:28:25;101154.41;;;13.77;92.11
39823;BME280;25499;53.958;10.970;2023-03-19T09:30:51;101170.25;;;13.65;92.35
39823;BME280;25499;53.958;10.970;2023-03-19T09:33:18;101166.84;;;13.52;92.00
39823;BME280;25499;53.958;10.970;2023-03-19T09:35:49;101174.59;;;13.61;93.72
39823;BME280;25499;53.958;10.970;2023-03-19T09:38:15;101181.56;;;13.67;93.32
39823;BME280;25499;53.958;10.970;2023-03-19T09:40:43;101183.91;;;13.93;94.62
39823;BME280;25499;53.958;10.970;2023-03-19T09:43:38;101177.47;;;14.25;92.66
39823;BME280;25499;53.958;10.970;2023-03-19T09:46:13;101157.19;;;14.41;90.03
39823;BME280;25499;53.958;10.970;2023-03-19T09:49:36;101159.69;;;14.51;88.83
39823;BME280;25499;53.958;10.970;2023-03-19T09:51:49;101149.78;;;14.77;87.55
39823;BME280;25499;53.958;10.970;2023-03-19T09:56:55;101154.13;;;15.34;85.44
39823;BME280;25499;53.958;10.970;2023-03-19T09:59:22;101134.91;;;15.33;83.45
39823;BME280;25499;53.958;10.970;2023-03-19T10:01:54;101146.44;;;15.76;83.92
39823;BME280;25499;53.958;10.970;2023-03-19T10:07:06;101122.53;;;16.35;79.87
39823;BME280;25499;53.958;10.970;2023-03-19T10:09:47;101124.38;;;16.72;78.21
39823;BME280;25499;53.958;10.970;2023-03-19T10:17:29;101114.22;;;16.95;74.93
39823;BME280;25499;53.958;10.970;2023-03-19T10:22:40;101076.09;;;19.74;67.80
39823;BME280;25499;53.958;10.970;2023-03-19T10:25:17;101040.47;;;21.39;62.71
39823;BME280;25499;53.958;10.970;2023-03-19T10:27:45;100989.06;;;22.40;57.24
39823;BME280;25499;53.958;10.970;2023-03-19T10:30:15;100961.28;;;21.91;55.69
39823;BME280;25499;53.958;10.970;2023-03-19T10:32:51;100961.38;;;20.47;56.49
39823;BME280;25499;53.958;10.970;2023-03-19T10:35:18;101042.81;;;19.43;61.27
39823;BME280;25499;53.958;10.970;2023-03-19T10:37:44;101053.31;;;18.94;62.27
39823;BME280;25499;53.958;10.970;2023-03-19T10:40:21;101031.22;;;18.12;62.30
39823;BME280;25499;53.958;10.970;2023-03-19T10:43:05;101092.47;;;17.56;66.66
39823;BME280;25499;53.958;10.970;2023-03-19T10:45:36;101101.03;;;17.31;67.97
39823;BME280;25499;53.958;10.970;2023-03-19T10:48:03;101093.63;;;17.11;68.43
39823;BME280;25499;53.958;10.970;2023-03-19T10:55:45;101096.19;;;18.15;67.19
39823;BME280;25499;53.958;10.970;2023-03-19T10:58:17;101037.13;;;18.20;64.02
39823;BME280;25499;53.958;10.970;2023-03-19T11:00:48;101077.06;;;18.94;64.08
39823;BME280;25499;53.958;10.970;2023-03-19T11:03:36;101057.66;;;18.95;63.51
39823;BME280;25499;53.958;10.970;2023-03-19T11:08:59;101071.31;;;17.92;65.46
39823;BME280;25499;53.958;10.970;2023-03-19T11:11:47;101085.75;;;18.10;66.17
39823;BME280;25499;53.958;10.970;2023-03-19T11:14:17;101073.78;;;18.30;65.51
39823;BME280;25499;53.958;10.970;2023-03-19T11:16:47;101062.59;;;18.50;64.68
39823;BME280;25499;53.958;10.970;2023-03-19T11:19:19;101073.09;;;18.79;64.72
39823;BME280;25499;53.958;10.970;2023-03-19T11:22:15;101032.28;;;18.91;63.43
39823;BME280;25499;53.958;10.970;2023-03-19T11:24:40;101040.81;;;19.50;62.88
39823;BME280;25499;53.958;10.970;2023-03-19T11:27:07;101058.44;;;20.00;62.73
39823;BME280;25499;53.958;10.970;2023-03-19T11:29:39;101042.66;;;20.20;61.86
39823;BME280;25499;53.958;10.970;2023-03-19T11:35:03;100979.09;;;20.23;58.43
39823;BME280;25499;53.958;10.970;2023-03-19T11:45:57;101041.94;;;21.46;58.76
39823;BME280;25499;53.958;10.970;2023-03-19T12:01:41;101077.16;;;19.68;64.02
39823;BME280;25499;53.958;10.970;2023-03-19T12:11:52;101069.31;;;19.42;64.59
39823;BME280;25499;53.958;10.970;2023-03-19T12:25:55;100983.66;;;20.42;59.62
39823;BME280;25499;53.958;10.970;2023-03-19T12:28:32;101011.59;;;20.03;61.22
39823;BME280;25499;53.958;10.970;2023-03-19T12:31:09;101029.50;;;20.19;61.93
39823;BME280;25499;53.958;10.970;2023-03-19T12:33:48;101017.09;;;21.08;60.57
39823;BME280;25499;53.958;10.970;2023-03-19T12:36:23;100997.78;;;21.86;58.83
39823;BME280;25499;53.958;10.970;2023-03-19T12:38:53;100961.72;;;22.91;55.59
39823;BME280;25499;53.958;10.970;2023-03-19T12:41:27;100970.03;;;24.01;54.20
39823;BME280;25499;53.958;10.970;2023-03-19T12:44:03;100928.66;;;24.28;51.14
39823;BME280;25499;53.958;10.970;2023-03-19T12:46:35;100902.47;;;24.36;50.33
39823;BME280;25499;53.958;10.970;2023-03-19T12:49:21;100899.09;;;22.70;51.43
39823;BME280;25499;53.958;10.970;2023-03-19T12:51:53;100913.03;;;21.66;53.82
39823;BME280;25499;53.958;10.970;2023-03-19T12:54:32;100950.72;;;20.71;55.88
39823;BME280;25499;53.958;10.970;2023-03-19T12:57:20;100952.19;;;19.90;57.24
39823;BME280;25499;53.958;10.970;2023-03-19T12:59:54;100981.63;;;19.32;59.91
39823;BME280;25499;53.958;10.970;2023-03-19T13:02:34;100998.91;;;18.90;61.10
39823;BME280;25499;53.958;10.970;2023-03-19T13:10:25;101050.50;;;17.51;65.78
39823;BME280;25499;53.958;10.970;2023-03-19T13:12:51;101071.59;;;17.15;67.37
39823;BME280;25499;53.958;10.970;2023-03-19T13:15:48;101090.69;;;16.88;69.88
39823;BME280;25499;53.958;10.970;2023-03-19T13:18:20;101097.75;;;16.87;71.58
39823;BME280;25499;53.958;10.970;2023-03-19T13:21:22;101105.88;;;16.34;73.93
39823;BME280;25499;53.958;10.970;2023-03-19T13:23:57;101109.16;;;16.46;74.92
39823;BME280;25499;53.958;10.970;2023-03-19T13:26:24;101124.16;;;16.40;75.85
39823;BME280;25499;53.958;10.970;2023-03-19T13:31:24;101106.19;;;16.19;76.43
39823;BME280;25499;53.958;10.970;2023-03-19T13:36:41;101087.00;;;16.17;75.72
39823;BME280;25499;53.958;10.970;2023-03-19T13:39:24;101087.19;;;16.08;75.84
39823;BME280;25499;53.958;10.970;2023-03-19T14:03:24;101076.94;;;15.47;76.64
39823;BME280;25499;53.958;10.970;2023-03-19T14:05:52;101058.19;;;15.19;76.58
39823;BME280;25499;53.958;10.970;2023-03-19T14:08:21;101053.97;;;15.10;77.00
39823;BME280;25499;53.958;10.970;2023-03-19T14:10:50;101062.06;;;14.96;77.30
39823;BME280;25499;53.958;10.970;2023-03-19T14:13:41;101068.25;;;14.94;78.25
39823;BME280;25499;53.958;10.970;2023-03-19T14:16:16;101060.59;;;14.78;77.74
39823;BME280;25499;53.958;10.970;2023-03-19T14:18:43;101063.19;;;14.81;77.44
39823;BME280;25499;53.958;10.970;2023-03-19T14:21:13;101070.22;;;14.79;77.49
39823;BME280;25499;53.958;10.970;2023-03-19T14:23:41;101083.91;;;13.63;79.46
39823;BME280;25499;53.958;10.970;2023-03-19T14:26:22;101118.66;;;13.76;82.52
39823;BME280;25499;53.958;10.970;2023-03-19T14:36:46;101170.03;;;12.62;91.58
39823;BME280;25499;53.958;10.970;2023-03-19T14:39:20;101162.94;;;12.86;98.06
39823;BME280;25499;53.958;10.970;2023-03-19T14:41:49;101154.16;;;12.95;100.00
39823;BME280;25499;53.958;10.970;2023-03-19T14:55:13;101159.38;;;12.96;100.00
39823;BME280;25499;53.958;10.970;2023-03-19T14:57:40;101161.13;;;12.94;100.00
39823;BME280;25499;53.958;10.970;2023-03-19T15:00:12;101168.91;;;13.05;100.00
39823;BME280;25499;53.958;10.970;2023-03-19T15:02:49;101169.44;;;13.56;100.00
39823;BME280;25499;53.958;10.970;2023-03-19T15:05:32;101167.50;;;13.78;100.00
39823;BME280;25499;53.958;10.970;2023-03-19T15:08:11;101160.38;;;13.90;100.00
39823;BME280;25499;53.958;10.970;2023-03-19T15:16:13;101136.34;;;13.49;96.81
39823;BME280;25499;53.958;10.970;2023-03-19T15:18:40;101128.59;;;13.37;95.34
39823;BME280;25499;53.958;10.970;2023-03-19T15:21:06;101121.78;;;13.16;96.28
39823;BME280;25499;53.958;10.970;2023-03-19T15:23:32;101114.31;;;12.57;96.32
39823;BME280;25499;53.958;10.970;2023-03-19T15:26:00;101122.41;;;12.02;100.00
39823;BME280;25499;53.958;10.970;2023-03-19T15:28:42;101134.53;;;12.21;100.00
39823;BME280;25499;53.958;10.970;2023-03-19T15:31:08;101136.25;;;12.21;100.00
39823;BME280;25499;53.958;10.970;2023-03-19T15:33:36;101139.59;;;12.55;100.00
39823;BME280;25499;53.958;10.970;2023-03-19T15:39:04;101140.63;;;12.16;100.00
39823;BME280;25499;53.958;10.970;2023-03-19T15:41:34;101139.84;;;11.93;100.00
39823;BME280;25499;53.958;10.970;2023-03-19T15:44:06;101143.31;;;11.92;100.00
39823;BME280;25499;53.958;10.970;2023-03-19T15:46:36;101154.56;;;12.13;100.00
39823;BME280;25499;53.958;10.970;2023-03-19T15:51:33;101158.06;;;11.84;100.00
39823;BME280;25499;53.958;10.970;2023-03-19T15:54:00;101187.66;;;11.99;100.00
39823;BME280;25499;53.958;10.970;2023-03-19T15:56:27;101203.28;;;12.09;100.00
39823;BME280;25499;53.958;10.970;2023-03-19T15:58:55;101191.13;;;12.04;100.00
39823;BME280;25499;53.958;10.970;2023-03-19T16:01:22;101175.50;;;11.68;100.00
39823;BME280;25499;53.958;10.970;2023-03-19T16:03:55;101154.63;;;11.64;100.00
39823;BME280;25499;53.958;10.970;2023-03-19T16:06:37;101164.16;;;11.80;100.00
39823;BME280;25499;53.958;10.970;2023-03-19T16:09:16;101165.88;;;11.84;100.00
39823;BME280;25499;53.958;10.970;2023-03-19T16:11:45;101169.38;;;11.71;100.00
39823;BME280;25499;53.958;10.970;2023-03-19T16:16:40;101192.91;;;11.52;100.00
39823;BME280;25499;53.958;10.970;2023-03-19T16:19:36;101197.22;;;11.80;100.00
39823;BME280;25499;53.958;10.970;2023-03-19T16:22:14;101198.97;;;12.01;100.00
39823;BME280;25499;53.958;10.970;2023-03-19T16:24:42;101191.13;;;12.04;100.00
39823;BME280;25499;53.958;10.970;2023-03-19T16:27:14;101202.41;;;11.90;100.00
39823;BME280;25499;53.958;10.970;2023-03-19T16:29:43;101206.78;;;11.61;100.00
39823;BME280;25499;53.958;10.970;2023-03-19T16:34:54;101225.91;;;11.78;100.00
39823;BME280;25499;53.958;10.970;2023-03-19T16:37:33;101220.69;;;11.69;100.00
39823;BME280;25499;53.958;10.970;2023-03-19T16:40:47;101226.78;;;11.71;100.00
39823;BME280;25499;53.958;10.970;2023-03-19T16:42:48;101230.25;;;11.82;100.00
39823;BME280;25499;53.958;10.970;2023-03-19T16:47:46;101226.75;;;11.28;100.00
39823;BME280;25499;53.958;10.970;2023-03-19T16:50:13;101224.13;;;11.25;100.00
39823;BME280;25499;53.958;10.970;2023-03-19T16:52:40;101235.44;;;11.42;100.00
39823;BME280;25499;53.958;10.970;2023-03-19T16:57:41;101245.88;;;11.37;100.00
39823;BME280;25499;53.958;10.970;2023-03-19T17:00:12;101245.81;;;11.13;100.00
39823;BME280;25499;53.958;10.970;2023-03-19T17:02:38;101242.31;;;10.95;100.00
39823;BME280;25499;53.958;10.970;2023-03-19T17:05:12;101251.03;;;11.11;100.00
39823;BME280;25499;53.958;10.970;2023-03-19T17:07:38;101246.66;;;10.95;100.00
39823;BME280;25499;53.958;10.970;2023-03-19T17:10:13;101243.97;;;10.76;100.00
39823;BME280;25499;53.958;10.970;2023-03-19T17:12:38;101247.53;;;11.06;100.00
39823;BME280;25499;53.958;10.970;2023-03-19T17:15:05;101252.75;;;11.06;100.00
39823;BME280;25499;53.958;10.970;2023-03-19T17:17:32;101245.78;;;10.99;100.00
39823;BME280;25499;53.958;10.970;2023-03-19T17:19:58;101245.78;;;10.91;100.00
39823;BME280;25499;53.958;10.970;2023-03-19T17:22:24;101252.69;;;10.89;100.00
39823;BME280;25499;53.958;10.970;2023-03-19T17:24:52;101262.28;;;10.90;100.00
39823;BME280;25499;53.958;10.970;2023-03-19T17:27:17;101270.00;;;10.72;100.00
39823;BME280;25499;53.958;10.970;2023-03-19T17:29:43;101274.41;;;10.83;100.00
39823;BME280;25499;53.958;10.970;2023-03-19T17:32:15;101274.44;;;10.99;100.00
39823;BME280;25499;53.958;10.970;2023-03-19T17:34:42;101267.53;;;11.07;100.00
39823;BME280;25499;53.958;10.970;2023-03-19T17:37:12;101266.63;;;10.99;100.00
39823;BME280;25499;53.958;10.970;2023-03-19T17:39:40;101269.22;;;10.93;100.00
39823;BME280;25499;53.958;10.970;2023-03-19T17:42:18;101280.50;;;10.89;100.00
39823;BME280;25499;53.958;10.970;2023-03-19T17:44:45;101288.31;;;10.92;100.00
39823;BME280;25499;53.958;10.970;2023-03-19T17:47:10;101286.56;;;10.88;100.00
39823;BME280;25499;53.958;10.970;2023-03-19T17:49:36;101290.03;;;10.87;100.00
39823;BME280;25499;53.958;10.970;2023-03-19T17:52:02;101286.53;;;10.81;100.00
39823;BME280;25499;53.958;10.970;2023-03-19T17:54:28;101289.28;;;11.15;100.00
39823;BME280;25499;53.958;10.970;2023-03-19T17:56:54;101286.72;;;11.31;100.00
39823;BME280;25499;53.958;10.970;2023-03-19T17:59:20;101280.63;;;11.32;100.00
39823;BME280;25499;53.958;10.970;2023-03-19T18:01:45;101285.81;;;11.32;100.00
39823;BME280;25499;53.958;10.970;2023-03-19T18:04:12;101285.78;;;11.16;100.00
39823;BME280;25499;53.958;10.970;2023-03-19T18:06:44;101289.16;;;10.88;100.00
39823;BME280;25499;53.958;10.970;2023-03-19T18:09:18;101302.13;;;10.72;100.00
39823;BME280;25499;53.958;10.970;2023-03-19T18:11:44;101303.00;;;10.71;100.00
39823;BME280;25499;53.958;10.970;2023-03-19T18:14:10;101314.22;;;10.66;100.00
39823;BME280;25499;53.958;10.970;2023-03-19T18:16:36;101312.50;;;10.66;100.00
39823;BME280;25499;53.958;10.970;2023-03-19T18:19:03;101320.31;;;10.64;100.00
39823;BME280;25499;53.958;10.970;2023-03-19T18:21:34;101327.28;;;10.69;100.00
39823;BME280;25499;53.958;10.970;2023-03-19T18:24:00;101320.34;;;10.68;100.00
39823;BME280;25499;53.958;10.970;2023-03-19T18:26:25;101322.03;;;10.62;100.00
39823;BME280;25499;53.958;10.970;2023-03-19T18:28:51;101323.78;;;10.67;100.00
39823;BME280;25499;53.958;10.970;2023-03-19T18:31:19;101325.63;;;10.83;100.00
39823;BME280;25499;53.958;10.970;2023-03-19T18:33:48;101326.47;;;10.74;100.00
39823;BME280;25499;53.958;10.970;2023-03-19T18:36:17;101331.66;;;10.71;100.00
39823;BME280;25499;53.958;10.970;2023-03-19T18:38:43;101329.78;;;10.55;100.00
39823;BME280;25499;53.958;10.970;2023-03-19T18:41:16;101329.84;;;10.61;100.00
39823;BME280;25499;53.958;10.970;2023-03-19T18:43:42;101335.00;;;10.55;100.00
39823;BME280;25499;53.958;10.970;2023-03-19T18:46:11;101336.84;;;10.71;100.00
39823;BME280;25499;53.958;10.970;2023-03-19T18:48:38;101341.13;;;10.61;100.00
39823;BME280;25499;53.958;10.970;2023-03-19T18:51:03;101338.47;;;10.57;100.00
39823;BME280;25499;53.958;10.970;2023-03-19T18:53:29;101341.09;;;10.57;100.00
39823;BME280;25499;53.958;10.970;2023-03-19T18:55:55;101342.94;;;10.73;100.00
39823;BME280;25499;53.958;10.970;2023-03-19T18:58:24;101343.69;;;10.55;100.00
39823;BME280;25499;53.958;10.970;2023-03-19T19:00:52;101347.19;;;10.62;100.00
39823;BME280;25499;53.958;10.970;2023-03-19T19:03:20;101348.88;;;10.49;100.00
39823;BME280;25499;53.958;10.970;2023-03-19T19:05:47;101347.09;;;10.47;100.00
39823;BME280;25499;53.958;10.970;2023-03-19T19:08:16;101349.69;;;10.45;100.00
39823;BME280;25499;53.958;10.970;2023-03-19T19:10:48;101352.28;;;10.43;100.00
39823;BME280;25499;53.958;10.970;2023-03-19T19:13:18;101342.94;;;10.76;100.00
39823;BME280;25499;53.958;10.970;2023-03-19T19:15:44;101347.34;;;10.87;100.00
39823;BME280;25499;53.958;10.970;2023-03-19T19:18:19;101342.75;;;10.47;100.00
39823;BME280;25499;53.958;10.970;2023-03-19T19:20:47;101347.81;;;10.29;100.00
39823;BME280;25499;53.958;10.970;2023-03-19T19:23:13;101343.34;;;10.14;100.00
39823;BME280;25499;53.958;10.970;2023-03-19T19:25:42;101342.41;;;10.04;100.00
39823;BME280;25499;53.958;10.970;2023-03-19T19:28:17;101350.22;;;10.07;100.00
39823;BME280;25499;53.958;10.970;2023-03-19T19:30:44;101352.81;;;10.05;100.00
39823;BME280;25499;53.958;10.970;2023-03-19T19:33:17;101362.38;;;10.08;100.00
39823;BME280;25499;53.958;10.970;2023-03-19T19:35:43;101360.38;;;9.81;100.00
39823;BME280;25499;53.958;10.970;2023-03-19T19:38:09;101351.53;;;9.62;100.00
39823;BME280;25499;53.958;10.970;2023-03-19T19:40:34;101360.16;;;9.58;100.00
39823;BME280;25499;53.958;10.970;2023-03-19T19:43:00;101355.81;;;9.58;100.00
39823;BME280;25499;53.958;10.970;2023-03-19T19:45:36;101369.63;;;9.52;100.00
39823;BME280;25499;53.958;10.970;2023-03-19T19:48:05;101375.66;;;9.50;100.00
39823;BME280;25499;53.958;10.970;2023-03-19T19:50:31;101390.22;;;9.34;100.00
39823;BME280;25499;53.958;10.970;2023-03-19T19:52:57;101379.59;;;9.17;100.00
39823;BME280;25499;53.958;10.970;2023-03-19T19:55:24;101390.84;;;9.16;100.00
39823;BME280;25499;53.958;10.970;2023-03-19T19:57:52;101379.72;;;9.28;100.00
39823;BME280;25499;53.958;10.970;2023-03-19T20:00:26;101386.75;;;9.33;100.00
39823;BME280;25499;53.958;10.970;2023-03-19T20:02:53;101379.72;;;9.28;100.00
39823;BME280;25499;53.958;10.970;2023-03-19T20:05:25;101386.56;;;9.20;100.00
39823;BME280;25499;53.958;10.970;2023-03-19T20:07:53;101395.16;;;9.14;100.00
39823;BME280;25499;53.958;10.970;2023-03-19T20:10:20;101397.56;;;9.00;100.00
39823;BME280;25499;53.958;10.970;2023-03-19T20:12:47;101395.78;;;8.98;100.00
39823;BME280;25499;53.958;10.970;2023-03-19T20:17:42;101395.03;;;9.05;100.00
39823;BME280;25499;53.958;10.970;2023-03-19T20:20:29;101402.03;;;9.10;100.00
39823;BME280;25499;53.958;10.970;2023-03-19T20:22:56;101413.94;;;8.94;100.00
39823;BME280;25499;53.958;10.970;2023-03-19T20:25:24;101423.41;;;8.89;100.00
39823;BME280;25499;53.958;10.970;2023-03-19T20:27:54;101427.69;;;8.89;100.00
39823;BME280;25499;53.958;10.970;2023-03-19T20:30:22;101430.28;;;8.89;100.00
39823;BME280;25499;53.958;10.970;2023-03-19T20:32:49;101439.63;;;8.76;100.00
39823;BME280;25499;53.958;10.970;2023-03-19T20:35:24;101439.59;;;8.73;100.00
39823;BME280;25499;53.958;10.970;2023-03-19T20:37:51;101442.94;;;8.66;100.00
39823;BME280;25499;53.958;10.970;2023-03-19T20:40:17;101439.31;;;8.56;100.00
39823;BME280;25499;53.958;10.970;2023-03-19T20:42:46;101431.38;;;8.48;100.00
39823;BME280;25499;53.958;10.970;2023-03-19T20:45:16;101425.16;;;8.40;100.00
39823;BME280;25499;53.958;10.970;2023-03-19T20:47:43;101423.56;;;8.44;100.00
39823;BME280;25499;53.958;10.970;2023-03-19T20:50:16;101418.31;;;8.42;100.00
39823;BME280;25499;53.958;10.970;2023-03-19T20:52:43;101415.66;;;8.39;100.00
39823;BME280;25499;53.958;10.970;2023-03-19T20:55:14;101420.06;;;8.43;100.00
39823;BME280;25499;53.958;10.970;2023-03-19T20:57:41;101422.56;;;8.40;100.00
39823;BME280;25499;53.958;10.970;2023-03-19T21:00:31;101410.31;;;8.31;100.00
39823;BME280;25499;53.958;10.970;2023-03-19T21:02:58;101407.44;;;8.14;100.00
39823;BME280;25499;53.958;10.970;2023-03-19T21:05:30;101404.84;;;8.14;100.00
39823;BME280;25499;53.958;10.970;2023-03-19T21:07:57;101411.72;;;8.12;100.00
39823;BME280;25499;53.958;10.970;2023-03-19T21:12:49;101412.00;;;7.80;100.00
39823;BME280;25499;53.958;10.970;2023-03-19T21:15:15;101410.50;;;7.92;100.00
39823;BME280;25499;53.958;10.970;2023-03-19T21:17:41;101428.25;;;8.17;100.00
39823;BME280;25499;53.958;10.970;2023-03-19T21:20:19;101425.63;;;8.16;100.00
39823;BME280;25499;53.958;10.970;2023-03-19T21:22:47;101414.22;;;8.08;100.00
39823;BME280;25499;53.958;10.970;2023-03-19T21:25:18;101421.53;;;7.81;100.00
39823;BME280;25499;53.958;10.970;2023-03-19T21:27:47;101415.03;;;7.58;100.00
39823;BME280;25499;53.958;10.970;2023-03-19T21:30:15;101416.25;;;7.33;100.00
39823;BME280;25499;53.958;10.970;2023-03-19T21:32:41;101410.84;;;7.22;100.00
39823;BME280;25499;53.958;10.970;2023-03-19T21:35:14;101408.00;;;7.09;100.00
39823;BME280;25499;53.958;10.970;2023-03-19T21:37:42;101410.53;;;7.06;100.00
39823;BME280;25499;53.958;10.970;2023-03-19T21:40:16;101408.56;;;6.96;100.00
39823;BME280;25499;53.958;10.970;2023-03-19T21:42:43;101398.84;;;6.86;100.00
39823;BME280;25499;53.958;10.970;2023-03-19T21:45:23;101396.88;;;6.74;100.00
39823;BME280;25499;53.958;10.970;2023-03-19T21:47:49;101400.03;;;6.62;100.00
39823;BME280;25499;53.958;10.970;2023-03-19T21:50:17;101405.22;;;6.62;100.00
39823;BME280;25499;53.958;10.970;2023-03-19T21:52:43;101408.69;;;6.64;100.00
39823;BME280;25499;53.958;10.970;2023-03-19T21:55:13;101404.63;;;6.74;100.00
39823;BME280;25499;53.958;10.970;2023-03-19T21:57:39;101413.41;;;6.81;100.00
39823;BME280;25499;53.958;10.970;2023-03-19T22:00:13;101424.06;;;6.58;100.00
39823;BME280;25499;53.958;10.970;2023-03-19T22:02:44;101419.69;;;6.92;100.00
39823;BME280;25499;53.958;10.970;2023-03-19T22:07:47;101425.88;;;6.61;100.00
39823;BME280;25499;53.958;10.970;2023-03-19T22:10:12;101425.44;;;6.80;100.00
